sensor_id;sensor_type;location;lat;lon;timestamp;temperature;humidity
25328;DHT22;13279;51.300;12.394;2024-01-25T00:01:57;9.00;99.90
25328;DHT22;13279;51.300;12.394;2024-01-25T00:04:25;8.90;99.90
25328;DHT22;13279;51.300;12.394;2024-01-25T00:06:53;8.90;99.90
25328;DHT22;13279;51.300;12.394;2024-01-25T00:09:20;8.90;99.90
25328;DHT22;13279;51.300;12.394;2024-01-25T00:11:48;8.90;99.90
25328;DHT22;13279;51.300;12.394;2024-01-25T00:14:17;8.90;99.90
25328;DHT22;13279;51.300;12.394;2024-01-25T00:16:44;8.90;99.90
25328;DHT22;13279;51.300;12.394;2024-01-25T00:19:12;8.90;99.90
25328;DHT22;13279;51.300;12.394;2024-01-25T00:21:42;8.90;99.90
25328;DHT22;13279;51.300;12.394;2024-01-25T00:24:11;8.90;99.90
25328;DHT22;13279;51.300;12.394;2024-01-25T00:26:38;8.90;99.90
25328;DHT22;13279;51.300;12.394;2024-01-25T00:29:06;8.90;99.90
25328;DHT22;13279;51.300;12.394;2024-01-25T00:31:35;8.80;99.90
25328;DHT22;13279;51.300;12.394;2024-01-25T00:34:03;8.80;99.90
25328;DHT22;13279;51.300;12.394;2024-01-25T00:36:31;8.80;99.90
25328;DHT22;13279;51.300;12.394;2024-01-25T00:38:59;8.80;99.90
25328;DHT22;13279;51.300;12.394;2024-01-25T00:41:27;8.80;99.90
25328;DHT22;13279;51.300;12.394;2024-01-25T00:43:59;8.80;99.90
25328;DHT22;13279;51.300;12.394;2024-01-25T00:46:27;8.80;99.90
25328;DHT22;13279;51.300;12.394;2024-01-25T00:48:56;8.80;99.90
25328;DHT22;13279;51.300;12.394;2024-01-25T00:51:24;8.80;99.90
25328;DHT22;13279;51.300;12.394;2024-01-25T00:53:52;8.80;99.90
25328;DHT22;13279;51.300;12.394;2024-01-25T00:56:20;8.80;99.90
25328;DHT22;13279;51.300;12.394;2024-01-25T00:58:48;8.80;99.90
25328;DHT22;13279;51.300;12.394;2024-01-25T01:01:16;8.80;99.90
25328;DHT22;13279;51.300;12.394;2024-01-25T01:03:45;8.90;99.90
25328;DHT22;13279;51.300;12.394;2024-01-25T01:06:21;8.80;99.90
25328;DHT22;13279;51.300;12.394;2024-01-25T01:08:49;8.80;99.90
25328;DHT22;13279;51.300;12.394;2024-01-25T01:11:16;8.80;99.90
25328;DHT22;13279;51.300;12.394;2024-01-25T01:13:44;8.80;99.90
25328;DHT22;13279;51.300;12.394;2024-01-25T01:16:12;8.70;99.90
25328;DHT22;13279;51.300;12.394;2024-01-25T01:18:39;8.70;99.90
25328;DHT22;13279;51.300;12.394;2024-01-25T01:21:07;8.70;99.90
25328;DHT22;13279;51.300;12.394;2024-01-25T01:23:35;8.70;99.90
25328;DHT22;13279;51.300;12.394;2024-01-25T01:26:04;8.80;99.90
25328;DHT22;13279;51.300;12.394;2024-01-25T01:28:31;8.70;99.90
25328;DHT22;13279;51.300;12.394;2024-01-25T01:30:59;8.70;99.90
25328;DHT22;13279;51.300;12.394;2024-01-25T01:33:26;8.70;99.90
25328;DHT22;13279;51.300;12.394;2024-01-25T01:35:54;8.70;99.90
25328;DHT22;13279;51.300;12.394;2024-01-25T01:38:21;8.70;99.90
25328;DHT22;13279;51.300;12.394;2024-01-25T01:40:50;8.80;99.90
25328;DHT22;13279;51.300;12.394;2024-01-25T01:43:18;8.80;99.90
25328;DHT22;13279;51.300;12.394;2024-01-25T01:45:46;8.80;99.90
25328;DHT22;13279;51.300;12.394;2024-01-25T01:48:14;8.80;99.90
25328;DHT22;13279;51.300;12.394;2024-01-25T01:50:42;8.80;99.90
25328;DHT22;13279;51.300;12.394;2024-01-25T01:53:10;8.70;99.90
25328;DHT22;13279;51.300;12.394;2024-01-25T01:55:39;8.70;99.90
25328;DHT22;13279;51.300;12.394;2024-01-25T01:58:09;8.70;99.90
25328;DHT22;13279;51.300;12.394;2024-01-25T02:00:37;8.70;99.90
25328;DHT22;13279;51.300;12.394;2024-01-25T02:03:06;8.60;99.90
25328;DHT22;13279;51.300;12.394;2024-01-25T02:05:34;8.60;99.90
25328;DHT22;13279;51.300;12.394;2024-01-25T02:08:02;8.60;99.90
25328;DHT22;13279;51.300;12.394;2024-01-25T02:10:30;8.60;99.90
25328;DHT22;13279;51.300;12.394;2024-01-25T02:12:57;8.60;99.90
25328;DHT22;13279;51.300;12.394;2024-01-25T02:15:26;8.60;99.90
25328;DHT22;13279;51.300;12.394;2024-01-25T02:17:53;8.60;99.90
25328;DHT22;13279;51.300;12.394;2024-01-25T02:20:21;8.50;99.90
25328;DHT22;13279;51.300;12.394;2024-01-25T02:22:50;8.50;99.90
25328;DHT22;13279;51.300;12.394;2024-01-25T02:25:17;8.50;99.90
25328;DHT22;13279;51.300;12.394;2024-01-25T02:27:45;8.40;99.90
25328;DHT22;13279;51.300;12.394;2024-01-25T02:30:12;8.40;99.90
25328;DHT22;13279;51.300;12.394;2024-01-25T02:32:40;8.40;99.90
25328;DHT22;13279;51.300;12.394;2024-01-25T02:35:08;8.40;99.90
25328;DHT22;13279;51.300;12.394;2024-01-25T02:37:35;8.40;99.90
25328;DHT22;13279;51.300;12.394;2024-01-25T02:40:05;8.40;99.90
25328;DHT22;13279;51.300;12.394;2024-01-25T02:42:33;8.30;99.90
25328;DHT22;13279;51.300;12.394;2024-01-25T02:45:00;8.30;99.90
25328;DHT22;13279;51.300;12.394;2024-01-25T02:47:27;8.30;99.90
25328;DHT22;13279;51.300;12.394;2024-01-25T02:49:55;8.30;99.90
25328;DHT22;13279;51.300;12.394;2024-01-25T02:52:22;8.30;99.90
25328;DHT22;13279;51.300;12.394;2024-01-25T02:54:50;8.30;99.90
25328;DHT22;13279;51.300;12.394;2024-01-25T02:57:19;8.20;99.90
25328;DHT22;13279;51.300;12.394;2024-01-25T02:59:46;8.20;99.90
25328;DHT22;13279;51.300;12.394;2024-01-25T03:02:14;8.10;99.90
25328;DHT22;13279;51.300;12.394;2024-01-25T03:04:42;8.10;99.90
25328;DHT22;13279;51.300;12.394;2024-01-25T03:07:09;8.10;99.90
25328;DHT22;13279;51.300;12.394;2024-01-25T03:09:37;8.00;99.90
25328;DHT22;13279;51.300;12.394;2024-01-25T03:12:07;8.00;99.90
25328;DHT22;13279;51.300;12.394;2024-01-25T03:14:36;8.00;99.90
25328;DHT22;13279;51.300;12.394;2024-01-25T03:17:03;8.00;99.90
25328;DHT22;13279;51.300;12.394;2024-01-25T03:19:32;7.90;99.90
25328;DHT22;13279;51.300;12.394;2024-01-25T03:22:00;7.90;99.90
25328;DHT22;13279;51.300;12.394;2024-01-25T03:24:28;7.90;99.90
25328;DHT22;13279;51.300;12.394;2024-01-25T03:26:55;7.90;99.90
25328;DHT22;13279;51.300;12.394;2024-01-25T03:29:23;7.90;99.90
25328;DHT22;13279;51.300;12.394;2024-01-25T03:31:51;8.00;99.90
25328;DHT22;13279;51.300;12.394;2024-01-25T03:34:19;7.90;99.90
25328;DHT22;13279;51.300;12.394;2024-01-25T03:36:46;7.90;99.90
25328;DHT22;13279;51.300;12.394;2024-01-25T03:39:13;7.90;99.90
25328;DHT22;13279;51.300;12.394;2024-01-25T03:41:40;7.90;99.90
25328;DHT22;13279;51.300;12.394;2024-01-25T03:44:08;7.90;99.90
25328;DHT22;13279;51.300;12.394;2024-01-25T03:46:35;7.90;99.90
25328;DHT22;13279;51.300;12.394;2024-01-25T03:49:04;7.90;99.90
25328;DHT22;13279;51.300;12.394;2024-01-25T03:51:31;7.90;99.90
25328;DHT22;13279;51.300;12.394;2024-01-25T03:53:59;7.90;99.90
25328;DHT22;13279;51.300;12.394;2024-01-25T03:56:26;7.90;99.90
25328;DHT22;13279;51.300;12.394;2024-01-25T03:58:54;7.90;99.90
25328;DHT22;13279;51.300;12.394;2024-01-25T04:01:21;7.90;99.90
25328;DHT22;13279;51.300;12.394;2024-01-25T04:03:48;8.00;99.90
25328;DHT22;13279;51.300;12.394;2024-01-25T04:06:17;8.00;99.90
25328;DHT22;13279;51.300;12.394;2024-01-25T04:08:45;8.00;99.90
25328;DHT22;13279;51.300;12.394;2024-01-25T04:11:13;8.00;99.90
25328;DHT22;13279;51.300;12.394;2024-01-25T04:13:42;8.00;99.90
25328;DHT22;13279;51.300;12.394;2024-01-25T04:16:09;8.10;99.90
25328;DHT22;13279;51.300;12.394;2024-01-25T04:18:37;8.00;99.90
25328;DHT22;13279;51.300;12.394;2024-01-25T04:21:04;8.00;99.90
25328;DHT22;13279;51.300;12.394;2024-01-25T04:23:34;8.10;99.90
25328;DHT22;13279;51.300;12.394;2024-01-25T04:26:01;8.10;99.90
25328;DHT22;13279;51.300;12.394;2024-01-25T04:28:29;8.10;99.90
25328;DHT22;13279;51.300;12.394;2024-01-25T04:30:56;8.10;99.90
25328;DHT22;13279;51.300;12.394;2024-01-25T04:33:23;8.10;99.90
25328;DHT22;13279;51.300;12.394;2024-01-25T04:35:51;8.00;99.90
25328;DHT22;13279;51.300;12.394;2024-01-25T04:38:18;8.10;99.90
25328;DHT22;13279;51.300;12.394;2024-01-25T04:40:47;8.10;99.90
25328;DHT22;13279;51.300;12.394;2024-01-25T04:43:14;8.10;99.90
25328;DHT22;13279;51.300;12.394;2024-01-25T04:45:42;8.10;99.90
25328;DHT22;13279;51.300;12.394;2024-01-25T04:48:09;8.10;99.90
25328;DHT22;13279;51.300;12.394;2024-01-25T04:50:36;8.10;99.90
25328;DHT22;13279;51.300;12.394;2024-01-25T04:53:05;8.10;99.90
25328;DHT22;13279;51.300;12.394;2024-01-25T04:55:33;8.10;99.90
25328;DHT22;13279;51.300;12.394;2024-01-25T04:58:01;8.10;99.90
25328;DHT22;13279;51.300;12.394;2024-01-25T05:00:29;8.10;99.90
25328;DHT22;13279;51.300;12.394;2024-01-25T05:02:56;8.10;99.90
25328;DHT22;13279;51.300;12.394;2024-01-25T05:05:24;8.10;99.90
25328;DHT22;13279;51.300;12.394;2024-01-25T05:07:51;8.10;99.90
25328;DHT22;13279;51.300;12.394;2024-01-25T05:10:18;8.00;99.90
25328;DHT22;13279;51.300;12.394;2024-01-25T05:12:45;8.10;99.90
25328;DHT22;13279;51.300;12.394;2024-01-25T05:15:14;8.00;99.90
25328;DHT22;13279;51.300;12.394;2024-01-25T05:17:43;8.00;99.90
25328;DHT22;13279;51.300;12.394;2024-01-25T05:20:10;8.00;99.90
25328;DHT22;13279;51.300;12.394;2024-01-25T05:22:39;8.00;99.90
25328;DHT22;13279;51.300;12.394;2024-01-25T05:25:08;8.00;99.90
25328;DHT22;13279;51.300;12.394;2024-01-25T05:27:36;8.00;99.90
25328;DHT22;13279;51.300;12.394;2024-01-25T05:30:04;8.00;99.90
25328;DHT22;13279;51.300;12.394;2024-01-25T05:32:33;8.00;99.90
25328;DHT22;13279;51.300;12.394;2024-01-25T05:35:01;7.90;99.90
25328;DHT22;13279;51.300;12.394;2024-01-25T05:37:28;7.90;99.90
25328;DHT22;13279;51.300;12.394;2024-01-25T05:39:56;8.00;99.90
25328;DHT22;13279;51.300;12.394;2024-01-25T05:42:23;7.90;99.90
25328;DHT22;13279;51.300;12.394;2024-01-25T05:44:51;8.00;99.90
25328;DHT22;13279;51.300;12.394;2024-01-25T05:47:19;8.00;99.90
25328;DHT22;13279;51.300;12.394;2024-01-25T05:49:48;8.00;99.90
25328;DHT22;13279;51.300;12.394;2024-01-25T05:52:15;8.00;99.90
25328;DHT22;13279;51.300;12.394;2024-01-25T05:54:43;7.90;99.90
25328;DHT22;13279;51.300;12.394;2024-01-25T05:57:10;7.90;99.90
25328;DHT22;13279;51.300;12.394;2024-01-25T05:59:38;7.90;99.90
25328;DHT22;13279;51.300;12.394;2024-01-25T06:02:05;7.90;99.90
25328;DHT22;13279;51.300;12.394;2024-01-25T06:04:33;7.80;99.90
25328;DHT22;13279;51.300;12.394;2024-01-25T06:07:03;7.80;99.90
25328;DHT22;13279;51.300;12.394;2024-01-25T06:09:30;7.80;99.90
25328;DHT22;13279;51.300;12.394;2024-01-25T06:11:59;7.80;99.90
25328;DHT22;13279;51.300;12.394;2024-01-25T06:14:26;7.80;99.90
25328;DHT22;13279;51.300;12.394;2024-01-25T06:16:53;7.80;99.90
25328;DHT22;13279;51.300;12.394;2024-01-25T06:19:20;7.80;99.90
25328;DHT22;13279;51.300;12.394;2024-01-25T06:21:49;7.80;99.90
25328;DHT22;13279;51.300;12.394;2024-01-25T06:24:18;7.80;99.90
25328;DHT22;13279;51.300;12.394;2024-01-25T06:26:46;7.80;99.90
25328;DHT22;13279;51.300;12.394;2024-01-25T06:29:13;7.80;99.90
25328;DHT22;13279;51.300;12.394;2024-01-25T06:31:42;7.90;99.90
25328;DHT22;13279;51.300;12.394;2024-01-25T06:34:10;7.90;99.90
25328;DHT22;13279;51.300;12.394;2024-01-25T06:36:37;7.90;99.90
25328;DHT22;13279;51.300;12.394;2024-01-25T06:39:05;7.90;99.90
25328;DHT22;13279;51.300;12.394;2024-01-25T06:41:34;7.80;99.90
25328;DHT22;13279;51.300;12.394;2024-01-25T06:44:01;7.80;99.90
25328;DHT22;13279;51.300;12.394;2024-01-25T06:46:29;7.80;99.90
25328;DHT22;13279;51.300;12.394;2024-01-25T06:48:56;7.80;99.90
25328;DHT22;13279;51.300;12.394;2024-01-25T06:51:23;7.70;99.90
25328;DHT22;13279;51.300;12.394;2024-01-25T06:53:50;7.70;99.90
25328;DHT22;13279;51.300;12.394;2024-01-25T06:56:18;7.70;99.90
25328;DHT22;13279;51.300;12.394;2024-01-25T06:58:47;7.70;99.90
25328;DHT22;13279;51.300;12.394;2024-01-25T07:01:20;7.80;99.90
25328;DHT22;13279;51.300;12.394;2024-01-25T07:03:48;7.80;99.90
25328;DHT22;13279;51.300;12.394;2024-01-25T07:06:16;7.80;99.90
25328;DHT22;13279;51.300;12.394;2024-01-25T07:08:44;7.70;99.90
25328;DHT22;13279;51.300;12.394;2024-01-25T07:11:12;7.70;99.90
25328;DHT22;13279;51.300;12.394;2024-01-25T07:13:41;7.70;99.90
25328;DHT22;13279;51.300;12.394;2024-01-25T07:16:09;7.70;99.90
25328;DHT22;13279;51.300;12.394;2024-01-25T07:18:37;7.70;99.90
25328;DHT22;13279;51.300;12.394;2024-01-25T07:21:04;7.70;99.90
25328;DHT22;13279;51.300;12.394;2024-01-25T07:23:33;7.70;99.90
25328;DHT22;13279;51.300;12.394;2024-01-25T07:26:00;7.70;99.90
25328;DHT22;13279;51.300;12.394;2024-01-25T07:28:28;7.70;99.90
25328;DHT22;13279;51.300;12.394;2024-01-25T07:30:55;7.70;99.90
25328;DHT22;13279;51.300;12.394;2024-01-25T07:33:24;7.70;99.90
25328;DHT22;13279;51.300;12.394;2024-01-25T07:35:51;7.70;99.90
25328;DHT22;13279;51.300;12.394;2024-01-25T07:38:18;7.70;99.90
25328;DHT22;13279;51.300;12.394;2024-01-25T07:40:46;7.70;99.90
25328;DHT22;13279;51.300;12.394;2024-01-25T07:43:13;7.70;99.90
25328;DHT22;13279;51.300;12.394;2024-01-25T07:45:40;7.70;99.90
25328;DHT22;13279;51.300;12.394;2024-01-25T07:48:08;7.70;99.90
25328;DHT22;13279;51.300;12.394;2024-01-25T07:50:36;7.60;99.90
25328;DHT22;13279;51.300;12.394;2024-01-25T07:53:04;7.60;99.90
25328;DHT22;13279;51.300;12.394;2024-01-25T07:55:34;7.60;99.90
25328;DHT22;13279;51.300;12.394;2024-01-25T07:58:02;7.60;99.90
25328;DHT22;13279;51.300;12.394;2024-01-25T08:00:29;7.60;99.90
25328;DHT22;13279;51.300;12.394;2024-01-25T08:02:57;7.60;99.90
25328;DHT22;13279;51.300;12.394;2024-01-25T08:05:24;7.70;99.90
25328;DHT22;13279;51.300;12.394;2024-01-25T08:07:53;7.70;99.90
25328;DHT22;13279;51.300;12.394;2024-01-25T08:10:20;7.70;99.90
25328;DHT22;13279;51.300;12.394;2024-01-25T08:12:48;7.80;99.90
25328;DHT22;13279;51.300;12.394;2024-01-25T08:15:15;7.90;99.90
25328;DHT22;13279;51.300;12.394;2024-01-25T08:17:43;7.90;99.90
25328;DHT22;13279;51.300;12.394;2024-01-25T08:20:11;8.00;99.90
25328;DHT22;13279;51.300;12.394;2024-01-25T08:22:40;8.00;99.90
25328;DHT22;13279;51.300;12.394;2024-01-25T08:25:09;8.00;99.90
25328;DHT22;13279;51.300;12.394;2024-01-25T08:27:38;8.00;99.90
25328;DHT22;13279;51.300;12.394;2024-01-25T08:30:06;8.00;99.90
25328;DHT22;13279;51.300;12.394;2024-01-25T08:32:33;7.90;99.90
25328;DHT22;13279;51.300;12.394;2024-01-25T08:35:00;7.90;99.90
25328;DHT22;13279;51.300;12.394;2024-01-25T08:37:28;7.80;99.90
25328;DHT22;13279;51.300;12.394;2024-01-25T08:39:55;7.80;99.90
25328;DHT22;13279;51.300;12.394;2024-01-25T08:42:24;7.80;99.90
25328;DHT22;13279;51.300;12.394;2024-01-25T08:44:51;7.80;99.90
25328;DHT22;13279;51.300;12.394;2024-01-25T08:47:19;7.80;99.90
25328;DHT22;13279;51.300;12.394;2024-01-25T08:49:46;7.80;99.90
25328;DHT22;13279;51.300;12.394;2024-01-25T08:52:13;7.80;99.90
25328;DHT22;13279;51.300;12.394;2024-01-25T08:54:41;7.90;99.90
25328;DHT22;13279;51.300;12.394;2024-01-25T08:57:09;7.90;99.90
25328;DHT22;13279;51.300;12.394;2024-01-25T08:59:38;7.90;99.90
25328;DHT22;13279;51.300;12.394;2024-01-25T09:02:06;7.90;99.90
25328;DHT22;13279;51.300;12.394;2024-01-25T09:04:33;8.00;99.90
25328;DHT22;13279;51.300;12.394;2024-01-25T09:07:01;8.00;99.90
25328;DHT22;13279;51.300;12.394;2024-01-25T09:09:28;8.00;99.90
25328;DHT22;13279;51.300;12.394;2024-01-25T09:11:56;8.00;99.90
25328;DHT22;13279;51.300;12.394;2024-01-25T09:14:23;7.90;99.90
25328;DHT22;13279;51.300;12.394;2024-01-25T09:16:52;8.00;99.90
25328;DHT22;13279;51.300;12.394;2024-01-25T09:19:19;8.00;99.90
25328;DHT22;13279;51.300;12.394;2024-01-25T09:21:46;8.10;99.90
25328;DHT22;13279;51.300;12.394;2024-01-25T09:24:14;8.20;99.90
25328;DHT22;13279;51.300;12.394;2024-01-25T09:26:41;8.20;99.90
25328;DHT22;13279;51.300;12.394;2024-01-25T09:29:09;8.30;99.90
25328;DHT22;13279;51.300;12.394;2024-01-25T09:31:36;8.30;99.90
25328;DHT22;13279;51.300;12.394;2024-01-25T09:34:05;8.30;99.90
25328;DHT22;13279;51.300;12.394;2024-01-25T09:36:32;8.40;99.90
25328;DHT22;13279;51.300;12.394;2024-01-25T09:38:59;8.40;99.90
25328;DHT22;13279;51.300;12.394;2024-01-25T09:41:27;8.50;99.90
25328;DHT22;13279;51.300;12.394;2024-01-25T09:43:55;8.60;99.90
25328;DHT22;13279;51.300;12.394;2024-01-25T09:46:23;8.80;99.90
25328;DHT22;13279;51.300;12.394;2024-01-25T09:48:51;8.80;99.90
25328;DHT22;13279;51.300;12.394;2024-01-25T09:51:20;8.70;99.90
25328;DHT22;13279;51.300;12.394;2024-01-25T09:53:49;8.60;99.90
25328;DHT22;13279;51.300;12.394;2024-01-25T09:56:20;8.60;99.90
25328;DHT22;13279;51.300;12.394;2024-01-25T09:58:50;8.70;99.90
25328;DHT22;13279;51.300;12.394;2024-01-25T10:01:18;8.70;99.90
25328;DHT22;13279;51.300;12.394;2024-01-25T10:03:46;8.60;99.90
25328;DHT22;13279;51.300;12.394;2024-01-25T10:06:13;8.70;99.90
25328;DHT22;13279;51.300;12.394;2024-01-25T10:08:43;8.70;99.90
25328;DHT22;13279;51.300;12.394;2024-01-25T10:11:09;8.90;99.90
25328;DHT22;13279;51.300;12.394;2024-01-25T10:13:40;9.00;99.90
25328;DHT22;13279;51.300;12.394;2024-01-25T10:16:11;9.20;99.90
25328;DHT22;13279;51.300;12.394;2024-01-25T10:18:41;9.30;99.90
25328;DHT22;13279;51.300;12.394;2024-01-25T10:21:09;9.30;99.90
25328;DHT22;13279;51.300;12.394;2024-01-25T10:23:37;9.30;99.90
25328;DHT22;13279;51.300;12.394;2024-01-25T10:26:07;9.30;99.90
25328;DHT22;13279;51.300;12.394;2024-01-25T10:28:35;9.30;99.90
25328;DHT22;13279;51.300;12.394;2024-01-25T10:31:03;9.30;99.90
25328;DHT22;13279;51.300;12.394;2024-01-25T10:33:32;9.30;99.90
25328;DHT22;13279;51.300;12.394;2024-01-25T10:36:00;9.40;99.90
25328;DHT22;13279;51.300;12.394;2024-01-25T10:38:30;9.40;99.90
25328;DHT22;13279;51.300;12.394;2024-01-25T10:41:00;9.30;99.90
25328;DHT22;13279;51.300;12.394;2024-01-25T10:43:30;9.30;99.90
25328;DHT22;13279;51.300;12.394;2024-01-25T10:45:58;9.30;99.90
25328;DHT22;13279;51.300;12.394;2024-01-25T10:48:25;9.30;99.90
25328;DHT22;13279;51.300;12.394;2024-01-25T10:50:53;9.30;99.90
25328;DHT22;13279;51.300;12.394;2024-01-25T10:53:22;9.30;99.90
25328;DHT22;13279;51.300;12.394;2024-01-25T10:55:50;9.20;99.90
25328;DHT22;13279;51.300;12.394;2024-01-25T10:58:18;9.00;99.90
25328;DHT22;13279;51.300;12.394;2024-01-25T11:00:51;9.00;99.90
25328;DHT22;13279;51.300;12.394;2024-01-25T11:03:19;9.00;99.90
25328;DHT22;13279;51.300;12.394;2024-01-25T11:05:47;9.00;99.90
25328;DHT22;13279;51.300;12.394;2024-01-25T11:08:20;8.90;99.90
25328;DHT22;13279;51.300;12.394;2024-01-25T11:10:50;9.00;99.90
25328;DHT22;13279;51.300;12.394;2024-01-25T11:13:23;9.10;99.90
25328;DHT22;13279;51.300;12.394;2024-01-25T11:15:53;9.20;99.90
25328;DHT22;13279;51.300;12.394;2024-01-25T11:18:24;9.20;99.90
25328;DHT22;13279;51.300;12.394;2024-01-25T11:20:52;9.30;99.90
25328;DHT22;13279;51.300;12.394;2024-01-25T11:23:19;9.40;99.90
25328;DHT22;13279;51.300;12.394;2024-01-25T11:25:47;9.30;99.90
25328;DHT22;13279;51.300;12.394;2024-01-25T11:28:15;9.20;99.90
25328;DHT22;13279;51.300;12.394;2024-01-25T11:30:43;9.20;99.90
25328;DHT22;13279;51.300;12.394;2024-01-25T11:33:13;9.10;99.90
25328;DHT22;13279;51.300;12.394;2024-01-25T11:35:40;9.00;99.90
25328;DHT22;13279;51.300;12.394;2024-01-25T11:38:09;9.00;99.90
25328;DHT22;13279;51.300;12.394;2024-01-25T11:40:36;9.00;99.90
25328;DHT22;13279;51.300;12.394;2024-01-25T11:43:05;9.00;99.90
25328;DHT22;13279;51.300;12.394;2024-01-25T11:45:36;9.00;99.90
25328;DHT22;13279;51.300;12.394;2024-01-25T11:48:09;9.00;99.90
25328;DHT22;13279;51.300;12.394;2024-01-25T11:50:37;9.10;99.90
25328;DHT22;13279;51.300;12.394;2024-01-25T11:53:05;9.20;99.90
25328;DHT22;13279;51.300;12.394;2024-01-25T11:55:32;9.20;99.90
25328;DHT22;13279;51.300;12.394;2024-01-25T11:57:59;9.20;99.90
25328;DHT22;13279;51.300;12.394;2024-01-25T12:00:27;9.20;99.90
25328;DHT22;13279;51.300;12.394;2024-01-25T12:02:55;9.20;99.90
25328;DHT22;13279;51.300;12.394;2024-01-25T12:05:22;9.20;99.90
25328;DHT22;13279;51.300;12.394;2024-01-25T12:07:51;9.30;99.90
25328;DHT22;13279;51.300;12.394;2024-01-25T12:10:19;9.40;99.90
25328;DHT22;13279;51.300;12.394;2024-01-25T12:12:48;9.40;99.90
25328;DHT22;13279;51.300;12.394;2024-01-25T12:15:15;9.60;99.90
25328;DHT22;13279;51.300;12.394;2024-01-25T12:17:43;9.70;99.90
25328;DHT22;13279;51.300;12.394;2024-01-25T12:20:11;9.80;99.90
25328;DHT22;13279;51.300;12.394;2024-01-25T12:22:38;9.90;99.90
25328;DHT22;13279;51.300;12.394;2024-01-25T12:25:09;9.90;99.90
25328;DHT22;13279;51.300;12.394;2024-01-25T12:27:40;9.80;99.90
25328;DHT22;13279;51.300;12.394;2024-01-25T12:30:08;9.80;99.90
25328;DHT22;13279;51.300;12.394;2024-01-25T12:32:36;9.80;99.90
25328;DHT22;13279;51.300;12.394;2024-01-25T12:35:04;9.70;99.90
25328;DHT22;13279;51.300;12.394;2024-01-25T12:37:32;9.60;99.90
25328;DHT22;13279;51.300;12.394;2024-01-25T12:39:59;9.50;99.90
25328;DHT22;13279;51.300;12.394;2024-01-25T12:42:29;9.50;99.90
25328;DHT22;13279;51.300;12.394;2024-01-25T12:44:56;9.40;99.90
25328;DHT22;13279;51.300;12.394;2024-01-25T12:47:24;9.30;99.90
25328;DHT22;13279;51.300;12.394;2024-01-25T12:49:52;9.20;99.90
25328;DHT22;13279;51.300;12.394;2024-01-25T12:52:20;9.30;99.90
25328;DHT22;13279;51.300;12.394;2024-01-25T12:54:47;9.20;99.90
25328;DHT22;13279;51.300;12.394;2024-01-25T12:57:15;9.10;99.90
25328;DHT22;13279;51.300;12.394;2024-01-25T12:59:43;9.00;99.90
25328;DHT22;13279;51.300;12.394;2024-01-25T13:02:12;9.10;99.90
25328;DHT22;13279;51.300;12.394;2024-01-25T13:04:39;9.20;99.90
25328;DHT22;13279;51.300;12.394;2024-01-25T13:07:06;9.10;99.90
25328;DHT22;13279;51.300;12.394;2024-01-25T13:09:34;9.10;99.90
25328;DHT22;13279;51.300;12.394;2024-01-25T13:12:04;9.10;99.90
25328;DHT22;13279;51.300;12.394;2024-01-25T13:14:31;9.00;99.90
25328;DHT22;13279;51.300;12.394;2024-01-25T13:17:01;9.10;99.90
25328;DHT22;13279;51.300;12.394;2024-01-25T13:19:28;9.20;99.90
25328;DHT22;13279;51.300;12.394;2024-01-25T13:21:56;9.30;99.90
25328;DHT22;13279;51.300;12.394;2024-01-25T13:24:23;9.20;99.90
25328;DHT22;13279;51.300;12.394;2024-01-25T13:26:51;9.30;99.90
25328;DHT22;13279;51.300;12.394;2024-01-25T13:29:18;9.40;99.90
25328;DHT22;13279;51.300;12.394;2024-01-25T13:31:46;9.30;99.90
25328;DHT22;13279;51.300;12.394;2024-01-25T13:34:14;9.30;99.90
25328;DHT22;13279;51.300;12.394;2024-01-25T13:36:42;9.30;99.90
25328;DHT22;13279;51.300;12.394;2024-01-25T13:39:09;9.40;99.90
25328;DHT22;13279;51.300;12.394;2024-01-25T13:41:37;9.60;99.90
25328;DHT22;13279;51.300;12.394;2024-01-25T13:44:04;9.70;99.90
25328;DHT22;13279;51.300;12.394;2024-01-25T13:46:32;9.70;99.90
25328;DHT22;13279;51.300;12.394;2024-01-25T13:48:59;9.60;99.90
25328;DHT22;13279;51.300;12.394;2024-01-25T13:51:28;9.30;99.90
25328;DHT22;13279;51.300;12.394;2024-01-25T13:53:55;9.20;99.90
25328;DHT22;13279;51.300;12.394;2024-01-25T13:56:23;9.00;99.90
25328;DHT22;13279;51.300;12.394;2024-01-25T13:58:51;9.00;99.90
25328;DHT22;13279;51.300;12.394;2024-01-25T14:01:19;8.90;99.90
25328;DHT22;13279;51.300;12.394;2024-01-25T14:03:47;8.80;99.90
25328;DHT22;13279;51.300;12.394;2024-01-25T14:06:14;8.70;99.90
25328;DHT22;13279;51.300;12.394;2024-01-25T14:08:43;8.60;99.90
25328;DHT22;13279;51.300;12.394;2024-01-25T14:11:11;8.60;99.90
25328;DHT22;13279;51.300;12.394;2024-01-25T14:13:38;8.60;99.90
25328;DHT22;13279;51.300;12.394;2024-01-25T14:16:06;8.60;99.90
25328;DHT22;13279;51.300;12.394;2024-01-25T14:18:37;8.50;99.90
25328;DHT22;13279;51.300;12.394;2024-01-25T14:21:05;8.50;99.90
25328;DHT22;13279;51.300;12.394;2024-01-25T14:23:32;8.40;99.90
25328;DHT22;13279;51.300;12.394;2024-01-25T14:26:01;8.50;99.90
25328;DHT22;13279;51.300;12.394;2024-01-25T14:28:28;8.40;99.90
25328;DHT22;13279;51.300;12.394;2024-01-25T14:30:56;8.30;99.90
25328;DHT22;13279;51.300;12.394;2024-01-25T14:33:23;8.30;99.90
25328;DHT22;13279;51.300;12.394;2024-01-25T14:35:51;8.30;99.90
25328;DHT22;13279;51.300;12.394;2024-01-25T14:38:18;8.30;99.90
25328;DHT22;13279;51.300;12.394;2024-01-25T14:40:46;8.20;99.90
25328;DHT22;13279;51.300;12.394;2024-01-25T14:43:14;8.20;99.90
25328;DHT22;13279;51.300;12.394;2024-01-25T14:45:42;8.10;99.90
25328;DHT22;13279;51.300;12.394;2024-01-25T14:48:10;8.10;99.90
25328;DHT22;13279;51.300;12.394;2024-01-25T14:50:38;8.10;99.90
25328;DHT22;13279;51.300;12.394;2024-01-25T14:53:05;8.10;99.90
25328;DHT22;13279;51.300;12.394;2024-01-25T14:55:32;8.10;99.90
25328;DHT22;13279;51.300;12.394;2024-01-25T14:58:00;8.10;99.90
25328;DHT22;13279;51.300;12.394;2024-01-25T15:00:29;8.10;99.90
25328;DHT22;13279;51.300;12.394;2024-01-25T15:02:56;8.00;99.90
25328;DHT22;13279;51.300;12.394;2024-01-25T15:05:24;8.10;99.90
25328;DHT22;13279;51.300;12.394;2024-01-25T15:07:51;8.00;99.90
25328;DHT22;13279;51.300;12.394;2024-01-25T15:10:18;8.00;99.90
25328;DHT22;13279;51.300;12.394;2024-01-25T15:12:45;7.90;99.90
25328;DHT22;13279;51.300;12.394;2024-01-25T15:15:14;7.90;99.90
25328;DHT22;13279;51.300;12.394;2024-01-25T15:17:43;7.90;99.90
25328;DHT22;13279;51.300;12.394;2024-01-25T15:20:12;7.80;99.90
25328;DHT22;13279;51.300;12.394;2024-01-25T15:22:39;7.70;99.90
25328;DHT22;13279;51.300;12.394;2024-01-25T15:25:07;7.70;99.90
25328;DHT22;13279;51.300;12.394;2024-01-25T15:27:34;7.70;99.90
25328;DHT22;13279;51.300;12.394;2024-01-25T15:30:03;7.60;99.90
25328;DHT22;13279;51.300;12.394;2024-01-25T15:32:31;7.60;99.90
25328;DHT22;13279;51.300;12.394;2024-01-25T15:35:01;7.60;99.90